Weather at Walter Reed National Medical Center Heliport

Public forecast

Using degrees Fahrenheit for public forecast. Weather courtesy of forecast.io.

Closest aviation weather report (METAR) to Walter Reed National Medical Center Heliport

Closest report is College Park Airport, 8.2 nm (15.1 km) E. Retrieved 2020/10/29 00:35 UTC (0 seconds ago):

KCGS 290035Z AUTO 00000KT 5SM SCT075 16/15 A2998 RMK AO1 T01620152

Closest aviation forecast (TAF) to Walter Reed National Medical Center Heliport

Closest forecast is Ronald Reagan Washington National Airport, 9.3 nm (17.2 km) SSE. Retrieved 2020-10-29 00:42 UTC (0 seconds ago):

TAF KDCA 282339Z 2900/3006 17005KT P6SM FEW025 FEW080 BKN250 FM290500 05005KT 5SM -RA OVC025 FM291000 04008G16KT 2SM RA OVC008 FM291700 06010KT 1/2SM +RA OVC003 FM292100 04008KT 1SM RA OVC008 FM300100 01010G16KT 3SM RA OVC025